Time;durP1;ratioP1;P1;durP2;ratioP2;P2;SDS_P1;SDS_P2;PMS_P1;PMS_P2;Temp;Humidity;BMP_temperature;BMP_pressure;BME280_temperature;BME280_humidity;BME280_pressure;Samples;Min_cycle;Max_cycle;Signal;HPM_P1;HPM_P2
2023/06/21 00:02:06;;;;;;;7.40;5.20;;;20.20;99.90;;;;;;4952253;28;20976;-75
2023/06/21 00:04:32;;;;;;;9.02;5.10;;;20.20;99.90;;;;;;4976047;28;20798;-75
2023/06/21 00:06:59;;;;;;;6.55;4.97;;;20.20;99.90;;;;;;4972500;28;20507;-75
2023/06/21 00:09:25;;;;;;;7.93;5.70;;;20.20;99.90;;;;;;4953964;28;20408;-75
2023/06/21 00:11:51;;;;;;;6.03;5.13;;;20.20;99.90;;;;;;4979775;28;20514;-75
2023/06/21 00:14:18;;;;;;;6.88;4.90;;;20.20;99.90;;;;;;4968117;28;20925;-75
2023/06/21 00:16:46;;;;;;;6.10;5.00;;;20.20;99.90;;;;;;4954915;28;20420;-75
2023/06/21 00:19:12;;;;;;;6.75;4.90;;;20.10;99.90;;;;;;4960571;28;20409;-75
2023/06/21 00:21:38;;;;;;;6.30;4.97;;;20.10;99.90;;;;;;4954145;28;20430;-75
2023/06/21 00:24:07;;;;;;;6.43;4.95;;;20.00;99.90;;;;;;4958138;28;20467;-75
2023/06/21 00:26:34;;;;;;;5.70;5.00;;;20.00;99.90;;;;;;4953021;28;20589;-74
2023/06/21 00:29:00;;;;;;;5.53;4.55;;;20.00;99.90;;;;;;4954330;28;20758;-74
2023/06/21 00:31:26;;;;;;;5.43;4.80;;;19.90;99.90;;;;;;4955521;28;20480;-75
2023/06/21 00:33:52;;;;;;;7.57;5.20;;;19.90;99.90;;;;;;4950537;28;20507;-74
2023/06/21 00:36:18;;;;;;;6.85;4.70;;;19.90;99.90;;;;;;4953868;28;20429;-74
2023/06/21 00:38:46;;;;;;;5.90;4.75;;;19.80;99.90;;;;;;4956460;28;20453;-75
2023/06/21 00:41:12;;;;;;;7.45;4.95;;;19.80;99.90;;;;;;4951580;28;20443;-74
2023/06/21 00:43:39;;;;;;;5.45;4.40;;;19.70;99.90;;;;;;4970719;28;20504;-74
2023/06/21 00:46:05;;;;;;;6.60;4.30;;;19.70;99.90;;;;;;4954113;28;20941;-75
2023/06/21 00:48:31;;;;;;;6.20;4.60;;;19.60;99.90;;;;;;4956045;28;20457;-74
2023/06/21 00:50:59;;;;;;;4.95;4.40;;;19.70;99.90;;;;;;4977727;28;20515;-74
2023/06/21 00:53:28;;;;;;;7.53;4.72;;;19.70;99.90;;;;;;4958380;28;20426;-75
2023/06/21 00:56:01;;;;;;;5.55;4.57;;;19.70;99.90;;;;;;4973383;28;20921;-75
2023/06/21 00:58:28;;;;;;;5.35;4.45;;;19.70;99.90;;;;;;4972101;28;20446;-75
2023/06/21 01:00:54;;;;;;;5.63;4.68;;;19.80;99.90;;;;;;4954149;28;21157;-75
2023/06/21 01:03:22;;;;;;;6.25;4.80;;;19.80;99.90;;;;;;4966342;28;20406;-74
2023/06/21 01:06:23;;;;;;;6.15;4.70;;;19.80;99.90;;;;;;4955424;28;20502;-75
2023/06/21 01:09:08;;;;;;;5.13;4.32;;;19.80;99.90;;;;;;4979011;28;20422;-74
2023/06/21 01:12:02;;;;;;;6.13;4.60;;;19.80;99.90;;;;;;4954433;28;20425;-75
2023/06/21 01:14:34;;;;;;;5.97;4.70;;;19.80;99.90;;;;;;4957411;28;20427;-75
2023/06/21 01:17:05;;;;;;;4.97;4.18;;;19.80;99.90;;;;;;4948062;28;20771;-75
2023/06/21 01:19:54;;;;;;;5.87;4.43;;;19.80;99.90;;;;;;4961809;28;20564;-73
2023/06/21 01:22:45;;;;;;;6.38;4.18;;;19.80;99.90;;;;;;4945098;28;20426;-73
2023/06/21 01:25:29;;;;;;;7.25;4.43;;;19.80;99.90;;;;;;4961176;28;20413;-73
2023/06/21 01:28:30;;;;;;;6.25;4.30;;;19.90;99.90;;;;;;4946965;28;20814;-72
2023/06/21 01:31:01;;;;;;;6.45;4.68;;;19.90;99.90;;;;;;4949614;28;20428;-73
2023/06/21 01:33:31;;;;;;;6.32;4.10;;;19.90;99.90;;;;;;4953024;28;20445;-75
2023/06/21 01:36:02;;;;;;;4.80;4.30;;;19.90;99.90;;;;;;4952773;28;20934;-73
2023/06/21 01:38:28;;;;;;;4.93;4.38;;;19.80;99.90;;;;;;4950764;28;20416;-72
2023/06/21 01:40:55;;;;;;;4.55;4.10;;;19.80;99.90;;;;;;4955313;28;20428;-72
2023/06/21 01:43:23;;;;;;;5.65;4.13;;;19.70;99.90;;;;;;4935034;28;20448;-73
2023/06/21 01:45:51;;;;;;;4.60;4.20;;;19.70;99.90;;;;;;4957357;28;20434;-74
2023/06/21 01:48:19;;;;;;;5.20;4.00;;;19.70;99.90;;;;;;4956961;28;20468;-74
2023/06/21 01:50:47;;;;;;;7.47;4.22;;;19.80;99.90;;;;;;4952255;28;20485;-75
2023/06/21 01:53:14;;;;;;;4.78;4.10;;;19.70;99.90;;;;;;4956896;28;20426;-75
2023/06/21 01:55:48;;;;;;;4.90;4.25;;;19.70;99.90;;;;;;4950924;28;20433;-76
2023/06/21 01:58:16;;;;;;;4.90;4.20;;;19.70;99.90;;;;;;4951237;28;20422;-75
2023/06/21 02:00:44;;;;;;;4.55;4.15;;;19.70;99.90;;;;;;4955846;28;20436;-75
2023/06/21 02:03:14;;;;;;;5.18;4.20;;;19.60;99.90;;;;;;4949683;28;20412;-75
2023/06/21 02:05:43;;;;;;;6.38;4.78;;;19.70;99.90;;;;;;4961300;28;20520;-76
2023/06/21 02:08:16;;;;;;;5.45;4.05;;;19.60;99.90;;;;;;4948759;28;21017;-76
2023/06/21 02:10:46;;;;;;;6.00;4.30;;;19.60;99.90;;;;;;4955131;28;20427;-77
2023/06/21 02:13:16;;;;;;;6.32;4.20;;;19.50;99.90;;;;;;4974121;28;20475;-77
2023/06/21 02:15:43;;;;;;;5.28;4.07;;;19.40;99.90;;;;;;4950430;28;20505;-77
2023/06/21 02:18:10;;;;;;;5.83;4.23;;;19.40;99.90;;;;;;4948634;28;20946;-78
2023/06/21 02:20:38;;;;;;;6.70;4.20;;;19.40;99.90;;;;;;4956416;28;20420;-77
2023/06/21 02:23:05;;;;;;;7.20;4.40;;;19.40;99.90;;;;;;4957458;28;20845;-77
2023/06/21 02:25:36;;;;;;;5.32;4.15;;;19.30;99.90;;;;;;4991087;28;20507;-77
2023/06/21 02:28:05;;;;;;;5.30;4.00;;;19.20;99.90;;;;;;4952152;28;20831;-77
2023/06/21 02:30:32;;;;;;;5.07;4.50;;;19.20;99.90;;;;;;4990611;28;20418;-77
2023/06/21 02:32:59;;;;;;;6.05;4.07;;;19.30;99.90;;;;;;4971098;28;20426;-76
2023/06/21 02:35:25;;;;;;;4.78;4.18;;;19.30;99.90;;;;;;4980413;28;20429;-77
2023/06/21 02:37:52;;;;;;;5.30;4.50;;;19.30;99.90;;;;;;4951566;28;20430;-76
2023/06/21 02:40:19;;;;;;;4.88;4.28;;;19.40;99.90;;;;;;4945121;28;20436;-77
2023/06/21 02:42:45;;;;;;;6.05;4.07;;;19.40;99.90;;;;;;4956020;28;20481;-76
2023/06/21 02:45:12;;;;;;;5.70;4.20;;;19.30;99.90;;;;;;4959101;28;20879;-77
2023/06/21 02:47:38;;;;;;;5.70;4.25;;;19.40;99.90;;;;;;4955630;28;20437;-76
2023/06/21 02:50:05;;;;;;;7.03;4.30;;;19.40;99.90;;;;;;4963014;28;20458;-77
2023/06/21 02:52:32;;;;;;;4.82;4.40;;;19.40;99.90;;;;;;4958454;28;20459;-77
2023/06/21 02:54:59;;;;;;;4.95;4.38;;;19.50;99.90;;;;;;4958950;28;20920;-76
2023/06/21 02:57:25;;;;;;;7.13;4.55;;;19.50;99.90;;;;;;4961559;28;21099;-77
2023/06/21 02:59:51;;;;;;;4.93;4.32;;;19.50;99.90;;;;;;4958122;28;20429;-77
2023/06/21 03:02:21;;;;;;;7.32;4.35;;;19.50;99.90;;;;;;4967841;28;20427;-77
2023/06/21 03:04:48;;;;;;;5.30;4.20;;;19.50;99.90;;;;;;4953669;28;20445;-76
2023/06/21 03:07:14;;;;;;;4.90;4.40;;;19.60;99.90;;;;;;4946915;28;21093;-76
2023/06/21 03:09:40;;;;;;;4.80;4.28;;;19.60;99.90;;;;;;4951804;28;20422;-76
2023/06/21 03:12:08;;;;;;;5.15;4.30;;;19.60;99.90;;;;;;4969802;28;20509;-76
2023/06/21 03:14:38;;;;;;;4.78;4.38;;;19.70;99.90;;;;;;4942732;28;20942;-76
2023/06/21 03:17:05;;;;;;;5.10;4.60;;;19.70;99.90;;;;;;4950743;28;20954;-76
2023/06/21 03:19:32;;;;;;;6.68;4.63;;;19.70;99.90;;;;;;4959876;28;20924;-76
2023/06/21 03:21:58;;;;;;;7.63;4.30;;;19.70;99.90;;;;;;4966091;28;20428;-75
2023/06/21 03:24:26;;;;;;;5.57;4.25;;;19.80;99.90;;;;;;4968534;28;20430;-76
2023/06/21 03:26:53;;;;;;;4.93;4.20;;;19.70;99.90;;;;;;4949482;28;20448;-76
2023/06/21 03:29:20;;;;;;;5.35;4.72;;;19.80;99.90;;;;;;4949314;28;20422;-75
2023/06/21 03:31:46;;;;;;;6.30;4.40;;;19.80;99.90;;;;;;4947008;28;20423;-75
2023/06/21 03:34:12;;;;;;;4.85;4.20;;;19.80;99.90;;;;;;4951992;28;20431;-75
2023/06/21 03:36:39;;;;;;;5.72;4.65;;;19.80;99.90;;;;;;4949503;28;21237;-75
2023/06/21 03:39:06;;;;;;;5.70;4.50;;;19.80;99.90;;;;;;4962008;28;20410;-76
2023/06/21 03:41:32;;;;;;;6.60;5.10;;;19.90;99.90;;;;;;4946362;28;20498;-76
2023/06/21 03:43:59;;;;;;;5.82;4.70;;;19.90;99.90;;;;;;4951504;28;20424;-75
2023/06/21 03:46:25;;;;;;;5.03;4.50;;;19.90;99.90;;;;;;4974646;28;20428;-76
2023/06/21 03:48:53;;;;;;;6.22;4.70;;;19.90;99.90;;;;;;4951893;28;20788;-76
2023/06/21 03:51:20;;;;;;;5.57;4.60;;;20.00;99.90;;;;;;4965751;28;20851;-75
2023/06/21 03:53:46;;;;;;;5.95;4.88;;;20.00;99.90;;;;;;4959723;28;20493;-76
2023/06/21 03:56:12;;;;;;;5.43;4.63;;;20.00;99.90;;;;;;4958688;28;20467;-76
2023/06/21 03:58:39;;;;;;;6.32;4.88;;;20.10;99.90;;;;;;4950472;28;20823;-76
2023/06/21 04:01:05;;;;;;;7.25;5.00;;;20.10;99.90;;;;;;4952611;28;20453;-75
2023/06/21 04:03:32;;;;;;;5.20;4.70;;;20.10;99.90;;;;;;4977486;28;20406;-76
2023/06/21 04:05:58;;;;;;;5.45;4.60;;;20.10;99.90;;;;;;4959807;28;20798;-75
2023/06/21 04:08:24;;;;;;;5.30;4.80;;;20.20;99.90;;;;;;4948924;28;21332;-75
2023/06/21 04:10:52;;;;;;;6.80;4.70;;;20.20;99.90;;;;;;4956013;28;20974;-75
2023/06/21 04:13:18;;;;;;;5.70;4.77;;;20.30;99.90;;;;;;4951013;28;20472;-75
2023/06/21 04:15:44;;;;;;;5.35;4.70;;;20.30;99.90;;;;;;4952658;28;20422;-76
2023/06/21 04:18:10;;;;;;;5.57;4.80;;;20.40;99.90;;;;;;4950282;28;20457;-75
2023/06/21 04:20:36;;;;;;;5.05;4.28;;;20.50;99.90;;;;;;4954997;28;20509;-76
2023/06/21 04:23:03;;;;;;;5.30;4.80;;;20.60;99.90;;;;;;4948628;28;21031;-75
2023/06/21 04:25:29;;;;;;;4.82;4.32;;;20.60;99.90;;;;;;4953017;28;20422;-75
2023/06/21 04:27:55;;;;;;;7.05;4.80;;;20.70;99.90;;;;;;4955185;28;21024;-76
2023/06/21 04:30:21;;;;;;;5.40;4.43;;;20.70;99.90;;;;;;4952438;28;22387;-75
2023/06/21 04:32:47;;;;;;;5.10;4.53;;;20.80;99.90;;;;;;4960886;28;20422;-75
2023/06/21 04:35:18;;;;;;;4.90;4.45;;;20.90;99.90;;;;;;4962585;28;20410;-76
2023/06/21 04:37:47;;;;;;;5.20;4.70;;;20.90;99.90;;;;;;4949127;28;20428;-76
2023/06/21 04:40:19;;;;;;;5.78;4.68;;;21.00;99.90;;;;;;4950821;28;20972;-76
2023/06/21 04:42:46;;;;;;;5.80;4.50;;;21.10;99.90;;;;;;4951223;28;20424;-76
2023/06/21 04:45:16;;;;;;;5.47;4.73;;;21.10;99.90;;;;;;4956385;28;20559;-76
2023/06/21 04:47:46;;;;;;;5.50;4.72;;;21.20;99.90;;;;;;4958674;28;20436;-77
2023/06/21 04:50:14;;;;;;;5.65;4.65;;;21.20;99.90;;;;;;4973794;28;20431;-77
2023/06/21 04:52:41;;;;;;;5.55;4.68;;;21.30;99.90;;;;;;4953752;28;20508;-77
2023/06/21 04:55:09;;;;;;;5.50;4.88;;;21.30;99.90;;;;;;4952479;28;20768;-76
2023/06/21 04:57:35;;;;;;;5.53;4.82;;;21.40;99.90;;;;;;4952312;28;20422;-77
2023/06/21 05:00:06;;;;;;;5.25;4.60;;;21.40;99.90;;;;;;4949809;28;20953;-76
2023/06/21 05:02:33;;;;;;;7.93;4.47;;;21.40;99.90;;;;;;4951707;28;20986;-76
2023/06/21 05:04:59;;;;;;;7.75;4.82;;;21.50;99.90;;;;;;4951639;28;20412;-76
2023/06/21 05:07:25;;;;;;;5.45;4.60;;;21.50;99.90;;;;;;4951697;28;20835;-76
2023/06/21 05:09:52;;;;;;;5.20;4.50;;;21.60;99.90;;;;;;4957069;28;20461;-76
2023/06/21 05:12:18;;;;;;;5.03;4.50;;;21.60;99.90;;;;;;4955931;28;20447;-76
2023/06/21 05:14:44;;;;;;;4.72;4.25;;;21.70;99.90;;;;;;4954391;28;20423;-76
2023/06/21 05:17:12;;;;;;;5.30;4.30;;;21.70;99.90;;;;;;4966446;28;20533;-77
2023/06/21 05:19:38;;;;;;;5.70;4.45;;;21.80;99.90;;;;;;4953204;28;20841;-77
2023/06/21 05:22:05;;;;;;;5.78;4.50;;;21.90;99.90;;;;;;4953362;28;20482;-76
2023/06/21 05:24:31;;;;;;;5.80;4.30;;;21.90;99.90;;;;;;4958703;28;20421;-76
2023/06/21 05:26:57;;;;;;;7.10;4.40;;;22.00;99.90;;;;;;4952356;28;20408;-76
2023/06/21 05:29:24;;;;;;;5.38;4.15;;;22.00;99.90;;;;;;4971023;28;20410;-76
2023/06/21 05:31:50;;;;;;;5.43;4.43;;;22.10;99.90;;;;;;4982697;28;20422;-76
2023/06/21 05:34:16;;;;;;;5.43;4.32;;;22.20;99.90;;;;;;4974064;28;20429;-76
2023/06/21 05:36:42;;;;;;;5.32;4.03;;;22.30;99.90;;;;;;4950181;28;20440;-76
2023/06/21 05:39:08;;;;;;;5.63;4.30;;;22.30;99.90;;;;;;4970362;28;20410;-76
2023/06/21 05:41:35;;;;;;;5.47;4.20;;;22.40;99.90;;;;;;4955128;28;20433;-77
2023/06/21 05:44:01;;;;;;;4.68;4.18;;;22.40;99.90;;;;;;4966496;28;20407;-77
2023/06/21 05:46:27;;;;;;;4.47;4.00;;;22.50;99.90;;;;;;4970735;28;20423;-75
2023/06/21 05:48:53;;;;;;;5.47;4.00;;;22.60;99.90;;;;;;4954870;28;20482;-75
2023/06/21 05:51:19;;;;;;;5.43;3.67;;;22.60;99.90;;;;;;4952850;28;20429;-75
2023/06/21 05:53:46;;;;;;;8.35;3.50;;;22.70;99.90;;;;;;4987136;28;20508;-77
2023/06/21 05:56:12;;;;;;;5.63;3.43;;;22.80;99.90;;;;;;4961917;28;20773;-77
2023/06/21 05:58:38;;;;;;;5.45;3.53;;;22.90;99.90;;;;;;4951234;28;20438;-76
2023/06/21 06:01:04;;;;;;;6.82;3.25;;;23.00;99.90;;;;;;4949278;28;20482;-76
2023/06/21 06:03:30;;;;;;;3.72;3.33;;;23.10;99.90;;;;;;4980204;28;20444;-76
2023/06/21 06:05:56;;;;;;;5.97;3.50;;;23.20;99.90;;;;;;4953835;28;20426;-76
2023/06/21 06:08:23;;;;;;;5.28;3.50;;;23.20;99.90;;;;;;4969816;28;22318;-76
2023/06/21 06:10:49;;;;;;;5.53;3.47;;;23.30;99.90;;;;;;4966043;28;20427;-77
2023/06/21 06:13:16;;;;;;;3.92;3.42;;;23.40;99.90;;;;;;4951576;28;20775;-76
2023/06/21 06:15:42;;;;;;;4.78;3.40;;;23.50;99.90;;;;;;4979344;28;20416;-76
2023/06/21 06:18:08;;;;;;;4.25;3.70;;;23.60;99.90;;;;;;4950311;28;20490;-76
2023/06/21 06:20:35;;;;;;;5.28;3.65;;;23.70;99.90;;;;;;4949425;28;20432;-76
2023/06/21 06:23:01;;;;;;;4.45;3.50;;;23.70;99.90;;;;;;4946552;28;20480;-75
2023/06/21 06:25:28;;;;;;;4.60;3.60;;;23.70;99.90;;;;;;4949949;28;20418;-76
2023/06/21 06:27:54;;;;;;;4.25;3.65;;;23.70;99.90;;;;;;4955088;28;20418;-76
2023/06/21 06:30:20;;;;;;;4.53;3.50;;;23.90;99.90;;;;;;4945977;28;20803;-76
2023/06/21 06:32:46;;;;;;;5.40;4.00;;;23.90;99.90;;;;;;4942966;28;20422;-76
2023/06/21 06:35:13;;;;;;;6.13;3.70;;;24.00;99.90;;;;;;4950090;28;20426;-76
2023/06/21 06:37:39;;;;;;;3.42;3.13;;;24.00;99.90;;;;;;4951563;28;20429;-76
2023/06/21 06:40:06;;;;;;;6.40;3.35;;;24.20;99.90;;;;;;4951390;28;20429;-76
2023/06/21 06:42:32;;;;;;;4.32;3.30;;;24.50;99.90;;;;;;4955767;28;20427;-75
2023/06/21 06:44:58;;;;;;;4.68;3.13;;;24.50;99.90;;;;;;4949864;28;20982;-75
2023/06/21 06:47:28;;;;;;;6.53;3.47;;;24.60;99.90;;;;;;4942722;28;20472;-75
2023/06/21 06:49:55;;;;;;;6.07;3.10;;;24.70;99.90;;;;;;4948062;28;20408;-75
2023/06/21 06:52:22;;;;;;;5.60;3.20;;;24.70;99.90;;;;;;4975607;28;20421;-75
2023/06/21 06:54:50;;;;;;;4.65;3.30;;;24.80;99.90;;;;;;4961158;28;20453;-75
2023/06/21 06:57:17;;;;;;;4.35;3.35;;;25.00;99.90;;;;;;4953351;28;20453;-75
2023/06/21 06:59:43;;;;;;;4.60;3.13;;;25.00;99.90;;;;;;4949491;28;20608;-75
2023/06/21 07:02:09;;;;;;;6.73;3.43;;;25.20;99.90;;;;;;4935224;28;20853;-75
2023/06/21 07:04:36;;;;;;;7.90;3.60;;;25.20;99.90;;;;;;4947264;28;20831;-75
2023/06/21 07:07:02;;;;;;;4.50;3.13;;;25.40;99.90;;;;;;4949274;28;20433;-75
2023/06/21 07:09:28;;;;;;;3.92;3.13;;;25.50;99.90;;;;;;4944882;28;20455;-75
2023/06/21 07:11:59;;;;;;;3.72;3.10;;;25.60;99.90;;;;;;5033389;28;20412;-76
2023/06/21 07:14:25;;;;;;;4.70;3.22;;;25.70;99.90;;;;;;4948430;28;20483;-76
2023/06/21 07:16:51;;;;;;;5.18;3.22;;;25.80;99.90;;;;;;4951360;28;20429;-75
2023/06/21 07:19:18;;;;;;;3.95;3.35;;;26.00;99.90;;;;;;4969928;28;20970;-74
2023/06/21 07:21:44;;;;;;;6.18;3.70;;;26.00;99.90;;;;;;4955824;28;20427;-74
2023/06/21 07:24:12;;;;;;;6.73;3.67;;;26.30;99.90;;;;;;4947948;28;20432;-74
2023/06/21 07:26:41;;;;;;;6.60;4.07;;;26.40;99.90;;;;;;4946991;28;20408;-74
2023/06/21 07:29:07;;;;;;;4.68;3.45;;;26.50;99.90;;;;;;4944708;28;20412;-74
2023/06/21 07:31:34;;;;;;;5.90;4.13;;;26.60;99.90;;;;;;4952694;28;20432;-75
2023/06/21 07:34:03;;;;;;;6.88;4.00;;;26.60;99.90;;;;;;4946998;28;21061;-75
2023/06/21 07:36:29;;;;;;;5.90;3.70;;;26.60;99.90;;;;;;4953913;28;20421;-75
2023/06/21 07:38:56;;;;;;;5.07;3.85;;;26.60;99.90;;;;;;4958697;28;20415;-76
2023/06/21 07:41:22;;;;;;;5.35;3.85;;;26.60;99.90;;;;;;4951387;28;20466;-75
2023/06/21 07:43:48;;;;;;;5.97;3.90;;;26.70;99.90;;;;;;4938694;28;20405;-76
2023/06/21 07:46:14;;;;;;;7.37;4.30;;;26.70;99.90;;;;;;4976370;28;20828;-76
2023/06/21 07:48:41;;;;;;;6.72;3.92;;;26.70;99.90;;;;;;4948560;28;20887;-75
2023/06/21 07:51:07;;;;;;;7.40;4.05;;;26.70;99.90;;;;;;4950400;28;20424;-75
2023/06/21 07:53:33;;;;;;;6.72;4.05;;;26.70;99.90;;;;;;4950311;28;20429;-75
2023/06/21 07:56:02;;;;;;;5.20;3.90;;;26.70;99.90;;;;;;4953727;28;20462;-75
2023/06/21 07:58:29;;;;;;;8.27;4.35;;;26.80;99.90;;;;;;4948046;28;20417;-75
2023/06/21 08:00:55;;;;;;;7.93;4.25;;;26.90;99.90;;;;;;4956275;28;20422;-75
2023/06/21 08:03:22;;;;;;;5.33;4.00;;;26.90;99.90;;;;;;4953617;28;20977;-76
2023/06/21 08:05:48;;;;;;;5.95;3.85;;;27.00;99.90;;;;;;4976397;28;21008;-76
2023/06/21 08:08:17;;;;;;;5.07;4.05;;;27.10;99.90;;;;;;4959242;28;20778;-76
2023/06/21 08:10:43;;;;;;;4.80;4.07;;;27.20;99.90;;;;;;4956747;28;20431;-76
2023/06/21 08:13:10;;;;;;;5.45;4.00;;;27.30;99.90;;;;;;4960579;28;20424;-75
2023/06/21 08:15:36;;;;;;;5.40;4.10;;;27.30;99.90;;;;;;4947861;28;20957;-75
2023/06/21 08:18:02;;;;;;;4.45;4.05;;;27.30;99.90;;;;;;4953705;28;20519;-74
2023/06/21 08:20:28;;;;;;;5.57;3.90;;;27.30;99.90;;;;;;4955352;28;20402;-75
2023/06/21 08:22:56;;;;;;;4.90;3.80;;;27.50;99.90;;;;;;4951354;28;20470;-75
2023/06/21 08:25:22;;;;;;;7.47;4.30;;;27.60;99.90;;;;;;4976098;28;21018;-75
2023/06/21 08:27:48;;;;;;;4.35;3.80;;;27.70;99.90;;;;;;4959927;28;21049;-75
2023/06/21 08:30:14;;;;;;;4.90;4.10;;;27.70;99.90;;;;;;4964164;28;20479;-75
2023/06/21 08:32:40;;;;;;;8.60;3.72;;;27.80;99.90;;;;;;4950937;28;20501;-75
2023/06/21 08:35:07;;;;;;;6.10;4.03;;;27.80;99.90;;;;;;4948348;28;20428;-74
2023/06/21 08:37:34;;;;;;;7.00;4.20;;;28.00;99.90;;;;;;4952428;28;20884;-74
2023/06/21 08:40:00;;;;;;;5.03;4.10;;;28.00;99.90;;;;;;4954164;28;20426;-74
2023/06/21 08:42:26;;;;;;;6.57;4.07;;;28.20;99.90;;;;;;4960288;28;20452;-74
2023/06/21 08:44:54;;;;;;;6.97;3.90;;;28.30;99.90;;;;;;4952565;28;20422;-75
2023/06/21 08:47:22;;;;;;;4.90;3.85;;;28.40;99.90;;;;;;4958698;28;20418;-75
2023/06/21 08:49:50;;;;;;;6.93;4.40;;;28.30;99.90;;;;;;4945598;28;20800;-75
2023/06/21 08:52:20;;;;;;;6.63;4.03;;;28.20;99.90;;;;;;4949939;28;21085;-75
2023/06/21 08:55:02;;;;;;;6.45;3.85;;;28.20;99.90;;;;;;4978388;28;20431;-75
2023/06/21 08:57:34;;;;;;;5.72;4.38;;;28.20;99.90;;;;;;4957926;28;20481;-76
2023/06/21 09:00:03;;;;;;;7.00;4.10;;;28.20;99.90;;;;;;4956621;28;20427;-75
2023/06/21 09:02:47;;;;;;;6.53;4.10;;;28.30;99.90;;;;;;4972597;28;20421;-75
2023/06/21 09:05:32;;;;;;;6.55;4.03;;;28.40;99.90;;;;;;4952680;28;20927;-76
2023/06/21 09:08:02;;;;;;;5.72;3.95;;;28.30;99.90;;;;;;4970640;28;20425;-75
2023/06/21 09:10:31;;;;;;;6.97;3.90;;;28.40;99.90;;;;;;4952655;28;20413;-76
2023/06/21 09:12:59;;;;;;;7.47;3.90;;;28.40;99.90;;;;;;4963313;28;20420;-76
2023/06/21 09:15:26;;;;;;;5.47;3.92;;;28.50;99.90;;;;;;4954878;28;20428;-77
2023/06/21 09:17:56;;;;;;;6.68;3.90;;;28.70;99.90;;;;;;4954942;28;20482;-77
2023/06/21 09:20:28;;;;;;;6.50;4.05;;;28.80;99.90;;;;;;4961949;28;20536;-77
2023/06/21 09:22:57;;;;;;;6.57;4.20;;;28.90;99.90;;;;;;4960718;28;20420;-77
2023/06/21 09:25:25;;;;;;;9.70;4.40;;;29.00;99.90;;;;;;4941080;28;20824;-77
2023/06/21 09:27:53;;;;;;;7.07;4.30;;;29.10;99.90;;;;;;4971371;28;20438;-77
2023/06/21 09:30:21;;;;;;;5.63;3.92;;;29.00;99.90;;;;;;4963542;28;20422;-77
2023/06/21 09:32:48;;;;;;;7.95;4.45;;;29.20;99.90;;;;;;4965107;28;20564;-77
2023/06/21 09:35:14;;;;;;;5.75;4.03;;;29.20;99.90;;;;;;4958145;28;20509;-78
2023/06/21 09:37:41;;;;;;;8.43;4.28;;;29.20;99.90;;;;;;4954305;28;20971;-77
2023/06/21 09:40:08;;;;;;;8.95;4.72;;;29.10;99.90;;;;;;4952699;28;20545;-77
2023/06/21 09:42:38;;;;;;;7.63;4.05;;;29.30;99.90;;;;;;4939250;28;20412;-77
2023/06/21 09:45:17;;;;;;;7.97;3.75;;;29.30;99.90;;;;;;4956960;28;20456;-77
2023/06/21 09:47:43;;;;;;;6.70;4.03;;;29.40;99.90;;;;;;4961614;28;20430;-77
2023/06/21 09:50:11;;;;;;;8.75;3.83;;;29.30;99.90;;;;;;4971745;28;20482;-76
2023/06/21 09:52:44;;;;;;;6.47;4.32;;;29.30;99.90;;;;;;4955685;28;20557;-76
2023/06/21 09:55:15;;;;;;;5.45;4.20;;;29.50;99.90;;;;;;4944666;28;20464;-76
2023/06/21 09:57:42;;;;;;;7.15;4.32;;;29.70;99.90;;;;;;4947648;28;20480;-77
2023/06/21 10:00:10;;;;;;;8.73;4.40;;;29.70;99.90;;;;;;4944751;28;21197;-77
2023/06/21 10:02:41;;;;;;;7.15;4.28;;;29.50;99.90;;;;;;4946972;28;20427;-77
2023/06/21 10:05:20;;;;;;;7.40;4.20;;;29.50;99.90;;;;;;4946369;28;20519;-77
2023/06/21 10:07:47;;;;;;;7.15;4.10;;;29.50;99.90;;;;;;4943253;28;20529;-77
2023/06/21 10:10:14;;;;;;;8.00;4.40;;;29.80;99.90;;;;;;4944328;28;21148;-77
2023/06/21 10:12:55;;;;;;;6.63;4.20;;;29.80;99.90;;;;;;4950615;28;20416;-77
2023/06/21 10:15:21;;;;;;;6.05;3.92;;;29.90;99.90;;;;;;4953368;28;20452;-76
2023/06/21 10:17:48;;;;;;;10.43;4.40;;;30.00;99.90;;;;;;4950875;28;20438;-76
2023/06/21 10:20:15;;;;;;;8.30;4.22;;;30.30;99.90;;;;;;4953213;28;20424;-77
2023/06/21 10:22:51;;;;;;;6.88;4.13;;;30.00;99.90;;;;;;4942973;28;20543;-77
2023/06/21 10:25:20;;;;;;;6.22;4.10;;;30.00;99.90;;;;;;4976034;28;20420;-76
2023/06/21 10:27:51;;;;;;;6.82;4.07;;;30.00;99.90;;;;;;4962504;28;20430;-76
2023/06/21 10:30:19;;;;;;;7.38;3.80;;;30.10;99.90;;;;;;4943182;28;20504;-77
2023/06/21 10:32:49;;;;;;;6.45;4.25;;;29.90;99.90;;;;;;4976113;28;20437;-77
2023/06/21 10:35:19;;;;;;;6.88;3.80;;;29.90;99.90;;;;;;4954003;28;20472;-76
2023/06/21 10:38:01;;;;;;;8.30;4.20;;;29.90;99.90;;;;;;4951707;28;20507;-76
2023/06/21 10:40:28;;;;;;;7.72;4.10;;;29.70;99.90;;;;;;4959626;28;20438;-76
2023/06/21 10:42:58;;;;;;;7.68;4.28;;;29.50;99.90;;;;;;4940729;28;20924;-76
2023/06/21 10:45:25;;;;;;;7.67;4.07;;;29.50;99.90;;;;;;4961604;28;20843;-76
2023/06/21 10:47:57;;;;;;;8.60;4.18;;;29.50;99.90;;;;;;4947741;28;20448;-76
2023/06/21 10:50:24;;;;;;;7.72;4.00;;;29.60;99.90;;;;;;4977816;28;20813;-76
2023/06/21 10:52:57;;;;;;;8.05;4.30;;;29.60;99.90;;;;;;4957618;28;20826;-76
2023/06/21 10:55:23;;;;;;;7.95;4.00;;;29.50;99.90;;;;;;4952941;28;20422;-76
2023/06/21 10:57:54;;;;;;;7.00;4.10;;;29.40;99.90;;;;;;4965962;28;20918;-76
2023/06/21 11:00:26;;;;;;;6.95;3.80;;;29.40;99.90;;;;;;4953837;28;20432;-76
2023/06/21 11:02:54;;;;;;;7.83;3.77;;;29.40;99.90;;;;;;4943568;28;20945;-76
2023/06/21 11:05:26;;;;;;;7.63;4.00;;;29.30;99.90;;;;;;4946776;28;20773;-76
2023/06/21 11:07:58;;;;;;;6.33;3.83;;;29.20;99.90;;;;;;4958129;28;20452;-76
2023/06/21 11:10:49;;;;;;;10.23;3.97;;;29.20;99.90;;;;;;4975959;28;20420;-76
2023/06/21 11:13:17;;;;;;;7.03;3.83;;;29.20;99.90;;;;;;4963016;28;20428;-76
2023/06/21 11:15:48;;;;;;;5.40;3.90;;;29.10;99.90;;;;;;4973103;28;20536;-76
2023/06/21 11:18:19;;;;;;;5.65;3.40;;;29.20;99.90;;;;;;4958075;28;20456;-76
2023/06/21 11:20:57;;;;;;;6.32;3.85;;;29.10;99.90;;;;;;4948997;28;20418;-76
2023/06/21 11:23:25;;;;;;;6.00;3.85;;;29.00;99.90;;;;;;4958911;28;20825;-76
2023/06/21 11:26:15;;;;;;;5.53;3.65;;;29.20;99.90;;;;;;4956557;28;20412;-76
2023/06/21 11:28:48;;;;;;;7.15;3.80;;;29.20;99.90;;;;;;4940046;28;20833;-76
2023/06/21 11:31:17;;;;;;;6.97;4.20;;;29.20;99.90;;;;;;4971093;28;20425;-75
2023/06/21 11:33:59;;;;;;;7.35;4.05;;;29.10;99.90;;;;;;4944194;28;20426;-76
2023/06/21 11:36:29;;;;;;;5.65;4.10;;;29.10;99.90;;;;;;4951476;28;20441;-76
2023/06/21 11:39:20;;;;;;;6.40;3.83;;;29.20;99.90;;;;;;4948882;28;20433;-75
2023/06/21 11:41:47;;;;;;;5.63;3.67;;;29.20;99.90;;;;;;4947199;28;21110;-76
2023/06/21 11:44:19;;;;;;;7.03;3.97;;;29.20;99.90;;;;;;4948545;28;20478;-76
2023/06/21 11:46:47;;;;;;;5.93;3.73;;;29.20;99.90;;;;;;4943635;28;20990;-76
2023/06/21 11:49:13;;;;;;;6.35;4.03;;;29.30;99.90;;;;;;4952145;28;20420;-76
2023/06/21 11:52:04;;;;;;;6.85;3.92;;;29.20;99.90;;;;;;4945321;28;20451;-76
2023/06/21 11:54:37;;;;;;;5.47;3.70;;;29.00;99.90;;;;;;4947969;28;20849;-76
2023/06/21 11:57:05;;;;;;;6.78;3.75;;;29.00;99.90;;;;;;4958655;28;20422;-76
2023/06/21 11:59:34;;;;;;;6.27;3.60;;;29.00;99.90;;;;;;4949586;28;21039;-76
2023/06/21 12:02:20;;;;;;;7.72;3.55;;;29.00;99.90;;;;;;4947924;28;20861;-76
2023/06/21 12:04:48;;;;;;;6.83;3.60;;;29.10;99.90;;;;;;4942230;28;20415;-76
2023/06/21 12:07:16;;;;;;;6.90;3.80;;;29.10;99.90;;;;;;4977893;28;20464;-76
2023/06/21 12:09:49;;;;;;;8.15;3.72;;;29.00;99.90;;;;;;4950370;28;20403;-75
2023/06/21 12:12:16;;;;;;;6.55;3.47;;;29.10;99.90;;;;;;4951705;28;20456;-76
2023/06/21 12:14:43;;;;;;;8.65;4.00;;;29.10;99.90;;;;;;4946205;28;20834;-76
2023/06/21 12:17:19;;;;;;;7.73;3.70;;;28.90;99.90;;;;;;4983217;28;20527;-76
2023/06/21 12:19:45;;;;;;;8.40;3.90;;;29.10;99.90;;;;;;4954508;28;20519;-76
2023/06/21 12:22:14;;;;;;;11.30;3.88;;;29.10;99.90;;;;;;4953961;28;20880;-76
2023/06/21 12:24:40;;;;;;;7.10;3.63;;;29.00;99.90;;;;;;4949909;28;20426;-76
2023/06/21 12:27:11;;;;;;;6.40;3.65;;;29.10;99.90;;;;;;4948611;28;20424;-76
2023/06/21 12:29:37;;;;;;;6.53;3.93;;;29.00;99.90;;;;;;4951779;28;20426;-76
2023/06/21 12:32:04;;;;;;;14.40;4.00;;;29.00;99.90;;;;;;4954237;28;20462;-76
2023/06/21 12:34:32;;;;;;;7.60;3.60;;;29.00;99.90;;;;;;4956488;28;20434;-76
2023/06/21 12:36:59;;;;;;;5.95;4.13;;;28.90;99.90;;;;;;4947696;28;20428;-76
2023/06/21 12:39:25;;;;;;;7.57;3.95;;;28.90;99.90;;;;;;4947077;28;20426;-76
2023/06/21 12:41:52;;;;;;;8.63;3.75;;;29.00;99.90;;;;;;4965076;28;20971;-76
2023/06/21 12:44:30;;;;;;;7.18;3.78;;;29.00;99.90;;;;;;4963308;28;20422;-76
2023/06/21 12:46:57;;;;;;;8.65;3.75;;;28.90;99.90;;;;;;4962928;28;21838;-76
2023/06/21 12:49:24;;;;;;;7.03;3.97;;;28.80;99.90;;;;;;4967217;28;21896;-76
2023/06/21 12:51:50;;;;;;;8.88;3.85;;;28.90;99.90;;;;;;4985493;28;20481;-76
2023/06/21 12:54:19;;;;;;;5.60;3.63;;;28.80;99.90;;;;;;4951301;28;20887;-76